createdAt,value
2022-09-05T00:00:54.765Z,13.89
2022-09-05T00:01:54.766Z,13.88
2022-09-05T00:02:54.856Z,13.87
2022-09-05T00:03:54.926Z,13.87
2022-09-05T00:04:54.728Z,13.88
2022-09-05T00:06:03.068Z,13.88
2022-09-05T00:06:54.715Z,13.87
2022-09-05T00:07:59.325Z,13.89
2022-09-05T00:08:54.698Z,13.88
2022-09-05T00:09:54.672Z,13.84
2022-09-05T00:11:40.416Z,13.84
2022-09-05T00:11:54.656Z,13.83
2022-09-05T00:13:06.986Z,13.84
2022-09-05T00:13:54.656Z,13.84
2022-09-05T00:15:16.560Z,13.83
2022-09-05T00:15:54.645Z,13.83
2022-09-05T00:16:54.607Z,13.87
2022-09-05T00:19:17.758Z,13.84
2022-09-05T00:24:50.209Z,13.83
2022-09-05T00:25:47.801Z,13.80
2022-09-05T00:26:50.567Z,13.79
2022-09-05T00:27:47.800Z,13.80
2022-09-05T00:28:47.789Z,13.79
2022-09-05T00:31:06.574Z,13.77
2022-09-05T00:31:57.540Z,13.80
2022-09-05T00:32:02.485Z,13.76
2022-09-05T00:33:02.471Z,13.77
2022-09-05T00:34:02.461Z,13.77
2022-09-05T00:35:02.456Z,13.76
2022-09-05T00:36:02.417Z,13.73
2022-09-05T00:37:02.415Z,13.73
2022-09-05T00:38:02.386Z,13.73
2022-09-05T00:39:02.392Z,13.73
2022-09-05T00:40:17.823Z,13.71
2022-09-05T00:41:02.376Z,13.71
2022-09-05T00:42:02.345Z,13.70
2022-09-05T00:43:02.344Z,13.71
2022-09-05T00:44:02.331Z,13.73
2022-09-05T00:45:02.364Z,13.73
2022-09-05T00:46:02.406Z,13.71
2022-09-05T00:47:02.473Z,13.70
2022-09-05T00:48:02.298Z,13.71
2022-09-05T00:49:02.293Z,13.70
2022-09-05T00:50:02.286Z,13.70
2022-09-05T00:51:02.302Z,13.74
2022-09-05T00:52:02.257Z,13.74
2022-09-05T00:53:06.838Z,13.76
2022-09-05T00:54:02.226Z,13.74
2022-09-05T00:55:02.278Z,13.74
2022-09-05T00:56:02.197Z,13.73
2022-09-05T00:57:02.205Z,13.73
2022-09-05T00:58:02.186Z,13.73
2022-09-05T00:59:02.179Z,13.73
2022-09-05T01:00:02.171Z,13.73
2022-09-05T01:01:02.178Z,13.71
2022-09-05T01:02:02.313Z,13.71
2022-09-05T01:03:02.251Z,13.70
2022-09-05T01:04:02.120Z,13.71
2022-09-05T01:05:02.157Z,13.70
2022-09-05T01:06:02.097Z,13.69
2022-09-05T01:07:02.096Z,13.69
2022-09-05T01:08:02.081Z,13.71
2022-09-05T01:09:07.958Z,13.71
2022-09-05T01:10:02.087Z,13.73
2022-09-05T01:11:02.087Z,13.71
2022-09-05T01:12:02.035Z,13.71
2022-09-05T01:13:02.304Z,13.70
2022-09-05T01:14:02.021Z,13.70
2022-09-05T01:15:02.034Z,13.67
2022-09-05T01:16:02.120Z,13.70
2022-09-05T01:17:02.034Z,13.67
2022-09-05T01:18:01.976Z,13.67
2022-09-05T01:19:01.988Z,13.63
2022-09-05T01:20:04.674Z,13.65
2022-09-05T01:21:01.949Z,13.63
2022-09-05T01:22:01.925Z,13.63
2022-09-05T01:23:01.931Z,13.63
2022-09-05T01:24:01.907Z,13.62
2022-09-05T01:25:01.923Z,13.62
2022-09-05T01:26:01.903Z,13.61
2022-09-05T01:27:01.895Z,13.62
2022-09-05T01:29:17.658Z,13.63
2022-09-05T01:29:23.501Z,13.62
2022-09-05T01:30:01.836Z,13.62
2022-09-05T01:31:01.973Z,13.61
2022-09-05T01:32:01.821Z,13.58
2022-09-05T01:33:05.717Z,13.56
2022-09-05T01:34:01.807Z,13.58
2022-09-05T01:35:01.815Z,13.55
2022-09-05T01:36:03.984Z,13.55
2022-09-05T01:37:01.807Z,13.55
2022-09-05T01:38:02.000Z,13.49
2022-09-05T01:40:14.308Z,13.49
2022-09-05T01:40:20.905Z,13.49
2022-09-05T01:41:18.314Z,13.46
2022-09-05T01:42:01.720Z,13.47
2022-09-05T01:43:01.752Z,13.47
2022-09-05T01:44:01.693Z,13.46
2022-09-05T01:45:01.879Z,13.46
2022-09-05T01:46:01.716Z,13.46
2022-09-05T01:47:01.705Z,13.43
2022-09-05T01:48:01.672Z,13.41
2022-09-05T01:49:01.654Z,13.40
2022-09-05T01:50:01.643Z,13.40
2022-09-05T01:51:01.636Z,13.37
2022-09-05T01:52:01.623Z,13.40
2022-09-05T01:53:04.299Z,13.40
2022-09-05T01:54:01.623Z,13.38
2022-09-05T01:55:01.602Z,13.38
2022-09-05T01:56:04.281Z,13.37
2022-09-05T01:57:01.577Z,13.37
2022-09-05T01:58:01.544Z,13.33
2022-09-05T01:59:01.564Z,13.32
2022-09-05T02:00:01.548Z,13.33
2022-09-05T02:01:25.342Z,13.30
2022-09-05T02:02:01.645Z,13.30
2022-09-05T02:03:01.570Z,13.29
2022-09-05T02:04:07.239Z,13.27
2022-09-05T02:05:01.500Z,13.27
2022-09-05T02:06:01.498Z,13.25
2022-09-05T02:07:19.355Z,13.24
2022-09-05T02:08:01.467Z,13.22
2022-09-05T02:09:01.444Z,13.22
2022-09-05T02:10:06.928Z,13.21
2022-09-05T02:11:01.438Z,13.18
2022-09-05T02:12:01.422Z,13.18
2022-09-05T02:13:03.045Z,13.17
2022-09-05T02:14:01.419Z,13.14
2022-09-05T02:15:01.378Z,13.17
2022-09-05T02:16:01.511Z,13.15
2022-09-05T02:17:01.374Z,13.14
2022-09-05T02:18:01.364Z,13.12
2022-09-05T02:19:01.513Z,13.12
2022-09-05T02:20:01.321Z,13.11
2022-09-05T02:21:01.309Z,13.14
2022-09-05T02:22:01.315Z,13.15
2022-09-05T02:23:01.298Z,13.15
2022-09-05T02:24:01.291Z,13.15
2022-09-05T02:25:30.262Z,13.14
2022-09-05T02:26:06.690Z,13.14
2022-09-05T02:27:01.243Z,13.14
2022-09-05T02:28:05.421Z,13.14
2022-09-05T02:29:01.230Z,13.14
2022-09-05T02:30:01.232Z,13.14
2022-09-05T02:31:19.849Z,13.12
2022-09-05T02:32:01.211Z,13.11
2022-09-05T02:33:01.202Z,13.11
2022-09-05T02:34:02.363Z,13.11
2022-09-05T02:35:01.160Z,13.12
2022-09-05T02:36:01.181Z,13.11
2022-09-05T02:37:01.148Z,13.11
2022-09-05T02:42:45.041Z,13.11
2022-09-05T02:45:28.571Z,13.12
2022-09-05T02:45:33.622Z,13.09
2022-09-05T02:46:30.590Z,13.11
2022-09-05T02:47:30.412Z,13.11
2022-09-05T02:48:30.394Z,13.12
2022-09-05T02:51:48.810Z,13.12
2022-09-05T02:58:07.115Z,13.11
2022-09-05T02:58:13.517Z,13.06
2022-09-05T02:59:10.584Z,13.03
2022-09-05T03:00:02.071Z,13.07
2022-09-05T03:01:02.089Z,13.07
2022-09-05T03:02:02.094Z,13.07
2022-09-05T03:03:02.147Z,13.07
2022-09-05T03:04:02.016Z,13.06
2022-09-05T03:05:04.320Z,13.06
2022-09-05T03:06:02.037Z,13.03
2022-09-05T03:07:01.990Z,13.03
2022-09-05T03:08:01.993Z,13.03
2022-09-05T03:09:09.950Z,13.02
2022-09-05T03:10:01.971Z,13.02
2022-09-05T03:11:01.970Z,13.04
2022-09-05T03:12:05.208Z,13.00
2022-09-05T03:13:01.935Z,13.00
2022-09-05T03:14:01.918Z,13.02
2022-09-05T03:15:01.900Z,12.99
2022-09-05T03:16:04.685Z,12.95
2022-09-05T03:17:01.913Z,12.93
2022-09-05T03:18:20.847Z,12.95
2022-09-05T03:19:01.861Z,12.95
2022-09-05T03:20:01.858Z,12.96
2022-09-05T03:21:09.596Z,12.95
2022-09-05T03:22:01.853Z,12.96
2022-09-05T03:23:01.818Z,12.97
2022-09-05T03:24:01.822Z,12.99
2022-09-05T03:25:01.853Z,12.99
2022-09-05T03:26:01.795Z,12.97
2022-09-05T03:27:01.791Z,12.97
2022-09-05T03:28:01.777Z,12.99
2022-09-05T03:29:01.768Z,13.00
2022-09-05T03:30:01.757Z,12.99
2022-09-05T03:31:01.821Z,12.97
2022-09-05T03:32:01.753Z,12.97
2022-09-05T03:33:01.708Z,12.96
2022-09-05T03:34:01.723Z,12.95
2022-09-05T03:35:04.095Z,12.93
2022-09-05T03:36:01.705Z,12.93
2022-09-05T03:37:01.685Z,12.93
2022-09-05T03:38:01.691Z,12.92
2022-09-05T03:39:01.651Z,12.89
2022-09-05T03:40:15.845Z,12.87
2022-09-05T03:41:01.631Z,12.88
2022-09-05T03:42:01.626Z,12.88
2022-09-05T03:43:01.626Z,12.89
2022-09-05T03:44:02.095Z,12.88
2022-09-05T03:45:01.582Z,12.88
2022-09-05T03:46:01.653Z,12.88
2022-09-05T03:47:01.585Z,12.88
2022-09-05T03:48:08.413Z,12.89
2022-09-05T03:50:07.469Z,12.92
2022-09-05T03:57:05.423Z,12.89
2022-09-05T03:57:32.398Z,12.88
2022-09-05T03:57:43.029Z,12.85
2022-09-05T03:58:36.689Z,12.85
2022-09-05T03:59:24.154Z,12.85
2022-09-05T04:00:24.104Z,12.85
2022-09-05T04:02:08.869Z,12.84
2022-09-05T04:08:30.912Z,12.85
2022-09-05T04:08:42.723Z,12.84
2022-09-05T04:08:48.455Z,12.82
2022-09-05T04:09:51.740Z,12.85
2022-09-05T04:10:47.391Z,12.84
2022-09-05T04:11:47.280Z,12.81
2022-09-05T04:12:47.256Z,12.82
2022-09-05T04:13:47.242Z,12.85
2022-09-05T04:14:47.218Z,12.84
2022-09-05T04:15:47.227Z,12.85
2022-09-05T04:16:47.233Z,12.85
2022-09-05T04:17:47.200Z,12.87
2022-09-05T04:18:47.179Z,12.88
2022-09-05T04:19:49.827Z,12.88
2022-09-05T04:20:47.180Z,12.89
2022-09-05T04:21:47.170Z,12.88
2022-09-05T04:22:47.142Z,12.89
2022-09-05T04:23:47.152Z,12.89
2022-09-05T04:24:47.147Z,12.93
2022-09-05T04:25:47.124Z,12.89
2022-09-05T04:26:47.102Z,12.88
2022-09-05T04:27:47.111Z,12.88
2022-09-05T04:28:54.068Z,12.84
2022-09-05T04:30:06.551Z,12.84
2022-09-05T04:30:53.666Z,12.84
2022-09-05T04:32:17.551Z,12.81
2022-09-05T04:32:55.443Z,12.77
2022-09-05T04:33:55.937Z,12.75
2022-09-05T04:34:54.809Z,12.75
2022-09-05T04:35:53.567Z,12.75
2022-09-05T04:36:53.644Z,12.74
2022-09-05T04:37:48.099Z,12.74
2022-09-05T04:38:46.997Z,12.75
2022-09-05T04:39:47.035Z,12.75
2022-09-05T04:40:46.970Z,12.75
2022-09-05T04:41:53.549Z,12.74
2022-09-05T04:42:46.946Z,12.75
2022-09-05T04:43:46.927Z,12.78
2022-09-05T04:44:46.948Z,12.78
2022-09-05T04:45:46.946Z,12.79
2022-09-05T04:46:48.684Z,12.77
2022-09-05T04:47:53.481Z,12.78
2022-09-05T04:48:46.898Z,12.79
2022-09-05T04:49:54.599Z,12.81
2022-09-05T04:50:46.970Z,12.82
2022-09-05T04:52:00.290Z,12.79
2022-09-05T04:54:30.008Z,12.84
2022-09-05T04:55:37.422Z,12.79
2022-09-05T04:56:34.984Z,12.79
2022-09-05T04:57:37.922Z,12.81
2022-09-05T05:01:22.733Z,12.82
2022-09-05T05:03:12.963Z,12.82
2022-09-05T05:06:00.143Z,12.85
2022-09-05T05:06:12.754Z,12.89
2022-09-05T05:06:19.103Z,12.87
2022-09-05T05:06:46.154Z,12.88
2022-09-05T05:08:53.731Z,12.93
2022-09-05T05:09:51.594Z,12.93
2022-09-05T05:17:05.165Z,12.92
2022-09-05T05:18:14.371Z,12.97
2022-09-05T05:19:03.063Z,12.99
2022-09-05T05:20:40.210Z,12.97
2022-09-05T05:20:55.470Z,13.00
2022-09-05T05:22:01.920Z,12.97
2022-09-05T05:23:07.334Z,12.97
2022-09-05T05:24:03.122Z,12.97
2022-09-05T05:24:55.330Z,12.99
2022-09-05T05:26:01.980Z,12.99
2022-09-05T05:27:01.885Z,12.99
2022-09-05T05:28:01.854Z,12.99
2022-09-05T05:30:36.998Z,13.06
2022-09-05T05:31:37.998Z,13.07
2022-09-05T05:32:45.586Z,13.09
2022-09-05T05:33:37.937Z,13.12
2022-09-05T05:34:37.921Z,13.12
2022-09-05T05:35:44.596Z,13.12
2022-09-05T05:36:37.906Z,13.14
2022-09-05T05:37:37.875Z,13.14
2022-09-05T05:38:37.868Z,13.14
2022-09-05T05:39:37.887Z,13.14
2022-09-05T05:40:50.435Z,13.14
2022-09-05T05:41:37.842Z,13.15
2022-09-05T05:42:46.636Z,13.14
2022-09-05T05:43:37.803Z,13.17
2022-09-05T05:44:37.798Z,13.17
2022-09-05T05:45:37.833Z,13.18
2022-09-05T05:46:44.405Z,13.18
2022-09-05T05:47:44.341Z,13.18
2022-09-05T05:48:48.459Z,13.22
2022-09-05T05:49:37.758Z,13.25
2022-09-05T05:50:44.332Z,13.25
2022-09-05T05:52:01.739Z,13.25
2022-09-05T05:52:37.726Z,13.29
2022-09-05T05:53:50.255Z,13.29
2022-09-05T05:54:37.718Z,13.29
2022-09-05T05:55:51.165Z,13.30
2022-09-05T05:56:37.719Z,13.30
2022-09-05T05:57:37.675Z,13.29
2022-09-05T05:58:37.670Z,13.27
2022-09-05T05:59:37.660Z,13.27
2022-09-05T06:00:37.672Z,13.27
2022-09-05T06:01:45.458Z,13.29
2022-09-05T06:02:37.811Z,13.29
2022-09-05T06:03:37.685Z,13.30
2022-09-05T06:04:41.420Z,13.33
2022-09-05T06:05:37.611Z,13.37
2022-09-05T06:06:36.586Z,13.38
2022-09-05T06:07:48.278Z,13.40
2022-09-05T06:14:51.799Z,13.41
2022-09-05T06:15:12.031Z,13.43
2022-09-05T06:15:22.822Z,13.49
2022-09-05T06:16:17.486Z,13.49
2022-09-05T06:17:19.943Z,13.51
2022-09-05T06:18:17.446Z,13.49
2022-09-05T06:19:17.443Z,13.51
2022-09-05T06:22:10.455Z,13.52
2022-09-05T06:22:20.704Z,13.52
2022-09-05T06:22:26.252Z,13.55
2022-09-05T06:23:38.879Z,13.56
2022-09-05T06:24:26.232Z,13.58
2022-09-05T06:25:26.217Z,13.61
2022-09-05T06:26:26.198Z,13.61
2022-09-05T06:27:26.222Z,13.62
2022-09-05T06:28:26.184Z,13.62
2022-09-05T06:29:33.977Z,13.62
2022-09-05T06:30:26.249Z,13.65
2022-09-05T06:31:30.109Z,13.67
2022-09-05T06:32:26.147Z,13.67
2022-09-05T06:33:26.419Z,13.69
2022-09-05T06:34:32.967Z,13.71
2022-09-05T06:35:26.120Z,13.71
2022-09-05T06:36:26.095Z,13.73
2022-09-05T06:37:26.130Z,13.74
2022-09-05T06:38:26.135Z,13.76
2022-09-05T06:39:34.952Z,13.77
2022-09-05T06:40:33.782Z,13.77
2022-09-05T06:41:26.084Z,13.81
2022-09-05T06:42:42.170Z,13.83
2022-09-05T06:43:26.335Z,13.88
2022-09-05T06:44:26.227Z,13.89
2022-09-05T06:45:27.773Z,13.91
2022-09-05T06:46:54.521Z,13.94
2022-09-05T06:47:33.996Z,13.96
2022-09-05T06:48:44.395Z,14.02
2022-09-05T06:49:29.712Z,14.06
2022-09-05T06:50:36.802Z,14.09
2022-09-05T06:51:25.962Z,14.12
2022-09-05T06:52:28.485Z,14.14
2022-09-05T06:53:25.940Z,14.16
2022-09-05T06:54:25.918Z,14.21
2022-09-05T06:55:25.889Z,14.20
2022-09-05T06:56:26.632Z,14.24
2022-09-05T06:57:26.601Z,14.28
2022-09-05T06:58:25.886Z,14.28
2022-09-05T06:59:25.907Z,14.31
2022-09-05T07:00:25.869Z,14.32
2022-09-05T07:01:26.046Z,14.34
2022-09-05T07:02:57.976Z,14.35
2022-09-05T07:03:26.376Z,14.39
2022-09-05T07:05:05.239Z,14.43
2022-09-05T07:05:45.379Z,14.43
2022-09-05T07:06:46.697Z,14.44
2022-09-05T07:07:27.524Z,14.46
2022-09-05T07:08:36.538Z,14.50
2022-09-05T07:09:35.465Z,14.49
2022-09-05T07:10:38.453Z,14.52
2022-09-05T07:11:25.743Z,14.53
2022-09-05T07:12:25.729Z,14.53
2022-09-05T07:13:25.952Z,14.54
2022-09-05T07:14:25.735Z,14.56
2022-09-05T07:15:25.692Z,14.57
2022-09-05T07:16:38.165Z,14.61
2022-09-05T07:19:09.678Z,14.62
2022-09-05T07:20:15.789Z,14.64
2022-09-05T07:24:06.779Z,14.69
2022-09-05T07:24:55.271Z,14.71
2022-09-05T07:25:52.550Z,14.72
2022-09-05T07:26:54.545Z,14.74
2022-09-05T07:28:26.168Z,14.75
2022-09-05T07:28:52.499Z,14.80
2022-09-05T07:30:00.716Z,14.80
2022-09-05T07:30:52.476Z,14.80
2022-09-05T07:31:52.504Z,14.81
2022-09-05T07:32:52.494Z,14.84
2022-09-05T07:33:52.444Z,14.83
2022-09-05T07:34:52.414Z,14.86
2022-09-05T07:35:53.908Z,14.87
2022-09-05T07:37:13.860Z,14.88
2022-09-05T07:37:52.383Z,14.90
2022-09-05T07:39:06.991Z,14.90
2022-09-05T07:39:52.449Z,14.90
2022-09-05T07:40:52.340Z,14.91
2022-09-05T07:41:52.390Z,14.94
2022-09-05T07:42:57.334Z,14.95
2022-09-05T07:43:52.354Z,14.98
2022-09-05T07:44:52.314Z,15.01
2022-09-05T07:45:56.196Z,15.01
2022-09-05T07:46:52.316Z,15.03
2022-09-05T07:47:52.296Z,15.05
2022-09-05T07:48:54.027Z,15.06
2022-09-05T07:51:21.559Z,15.08
2022-09-05T07:57:32.294Z,15.20
2022-09-05T07:58:03.196Z,15.23
2022-09-05T07:59:03.008Z,15.26
2022-09-05T08:00:02.937Z,15.30
2022-09-05T08:01:02.983Z,15.31
2022-09-05T08:02:02.937Z,15.35
2022-09-05T08:03:03.200Z,15.38
2022-09-05T08:04:05.853Z,15.43
2022-09-05T08:05:02.969Z,15.46
2022-09-05T08:06:02.992Z,15.49
2022-09-05T08:07:48.309Z,15.54
2022-09-05T08:08:02.886Z,15.59
2022-09-05T08:09:21.771Z,15.61
2022-09-05T08:10:10.681Z,15.68
2022-09-05T08:11:24.966Z,15.74
2022-09-05T08:12:09.802Z,15.78
2022-09-05T08:13:23.450Z,15.82
2022-09-05T08:14:44.794Z,15.88
2022-09-05T08:15:03.794Z,15.97
2022-09-05T08:16:13.347Z,16.01
2022-09-05T08:17:02.855Z,16.07
2022-09-05T08:18:02.772Z,16.14
2022-09-05T08:19:02.771Z,16.20
2022-09-05T08:20:08.932Z,16.27
2022-09-05T08:21:02.733Z,16.35
2022-09-05T08:22:02.755Z,16.40
2022-09-05T08:23:02.721Z,16.48
2022-09-05T08:24:12.882Z,16.53
2022-09-05T08:25:02.705Z,16.58
2022-09-05T08:26:02.670Z,16.65
2022-09-05T08:27:02.675Z,16.70
2022-09-05T08:28:02.660Z,16.77
2022-09-05T08:29:02.637Z,16.86
2022-09-05T08:30:25.888Z,16.95
2022-09-05T08:31:02.728Z,17.04
2022-09-05T08:32:02.836Z,17.13
2022-09-05T08:33:11.026Z,17.23
2022-09-05T08:34:02.586Z,17.33
2022-09-05T08:35:03.309Z,17.50
2022-09-05T08:36:02.566Z,17.59
2022-09-05T08:37:02.618Z,17.74
2022-09-05T08:38:02.560Z,17.87
2022-09-05T08:39:02.545Z,17.99
2022-09-05T08:40:10.669Z,18.13
2022-09-05T08:41:02.538Z,18.27
2022-09-05T08:42:05.936Z,18.40
2022-09-05T08:44:59.540Z,18.59
2022-09-05T08:46:50.648Z,18.76
2022-09-05T08:46:56.042Z,19.29
2022-09-05T08:47:55.759Z,19.46
2022-09-05T08:48:55.711Z,19.66
2022-09-05T08:49:55.660Z,19.79
2022-09-05T08:50:55.661Z,19.91
2022-09-05T08:51:55.810Z,20.06
2022-09-05T08:52:55.629Z,20.20
2022-09-05T08:53:55.630Z,20.30
2022-09-05T08:55:04.325Z,20.42
2022-09-05T08:55:55.614Z,20.53
2022-09-05T08:56:55.606Z,20.66
2022-09-05T08:57:55.592Z,20.79
2022-09-05T08:59:31.725Z,20.91
2022-09-05T09:00:19.470Z,21.06
2022-09-05T09:01:00.257Z,21.23
2022-09-05T09:02:46.052Z,21.36
2022-09-05T09:02:55.692Z,21.50
2022-09-05T09:03:55.587Z,21.59
2022-09-05T09:05:01.382Z,21.61
2022-09-05T09:06:12.081Z,21.67
2022-09-05T09:07:10.864Z,21.75
2022-09-05T09:07:55.620Z,21.82
2022-09-05T09:08:55.473Z,21.94
2022-09-05T09:09:55.624Z,22.06
2022-09-05T09:10:55.464Z,22.16
2022-09-05T09:11:57.143Z,22.31
2022-09-05T09:12:55.436Z,22.50
2022-09-05T09:13:55.436Z,22.64
2022-09-05T09:14:55.436Z,22.69
2022-09-05T09:15:55.432Z,22.82
2022-09-05T09:16:55.439Z,23.01
2022-09-05T09:17:55.369Z,23.12
2022-09-05T09:18:55.406Z,23.29
2022-09-05T09:19:55.413Z,23.38
2022-09-05T09:20:55.374Z,23.46
2022-09-05T09:21:55.346Z,23.65
2022-09-05T09:22:55.381Z,23.76
2022-09-05T09:23:55.327Z,23.86
2022-09-05T09:25:15.212Z,23.98
2022-09-05T09:25:55.328Z,24.16
2022-09-05T09:26:55.308Z,24.24
2022-09-05T09:28:05.935Z,24.39
2022-09-05T09:28:55.290Z,24.56
2022-09-05T09:29:55.264Z,24.77
2022-09-05T09:30:57.536Z,24.95
2022-09-05T09:31:55.302Z,25.12
2022-09-05T09:32:59.260Z,25.27
2022-09-05T09:33:55.251Z,25.43
2022-09-05T09:34:56.272Z,25.65
2022-09-05T09:35:55.225Z,25.86
2022-09-05T09:36:55.254Z,26.04
2022-09-05T09:37:59.376Z,26.28
2022-09-05T09:38:55.230Z,26.52
2022-09-05T09:39:55.310Z,26.72
2022-09-05T09:41:02.591Z,26.89
2022-09-05T09:41:55.184Z,26.99
2022-09-05T09:42:55.188Z,26.98
2022-09-05T09:43:55.155Z,27.10
2022-09-05T09:44:55.204Z,27.26
2022-09-05T09:45:55.133Z,27.35
2022-09-05T09:46:55.237Z,27.53
2022-09-05T09:47:55.185Z,27.62
2022-09-05T09:48:55.136Z,27.80
2022-09-05T09:49:55.142Z,27.70
2022-09-05T09:50:58.887Z,27.69
2022-09-05T09:51:55.093Z,27.61
2022-09-05T09:52:55.114Z,27.62
2022-09-05T09:53:55.083Z,27.77
2022-09-05T09:54:55.121Z,27.91
2022-09-05T09:55:55.072Z,27.99
2022-09-05T09:56:55.072Z,28.13
2022-09-05T09:57:55.570Z,28.13
2022-09-05T09:58:55.073Z,28.19
2022-09-05T09:59:55.390Z,28.26
2022-09-05T10:00:55.037Z,28.33
2022-09-05T10:01:55.136Z,28.38
2022-09-05T10:05:52.329Z,28.40
2022-09-05T10:11:07.770Z,28.40
2022-09-05T10:11:57.118Z,25.86
2022-09-05T10:12:54.729Z,25.71
2022-09-05T10:13:51.576Z,25.56
2022-09-05T10:14:51.576Z,25.42
2022-09-05T10:15:51.605Z,25.31
2022-09-05T10:16:51.760Z,25.20
2022-09-05T10:17:51.579Z,25.05
2022-09-05T10:18:51.554Z,24.90
2022-09-05T10:20:09.920Z,24.75
2022-09-05T10:21:15.171Z,24.57
2022-09-05T10:22:34.376Z,24.42
2022-09-05T10:22:51.530Z,24.32
2022-09-05T10:23:51.488Z,24.27
2022-09-05T10:24:51.487Z,24.23
2022-09-05T10:25:51.479Z,24.19
2022-09-05T10:26:51.463Z,24.17
2022-09-05T10:27:51.584Z,24.13
2022-09-05T10:28:51.486Z,24.13
2022-09-05T10:29:52.773Z,24.19
2022-09-05T10:32:31.332Z,24.17
2022-09-05T10:35:14.791Z,24.10
2022-09-05T10:35:24.267Z,23.83
2022-09-05T10:35:41.198Z,23.86
2022-09-05T10:36:41.146Z,23.89
2022-09-05T10:37:41.122Z,23.89
2022-09-05T10:38:41.150Z,23.87
2022-09-05T10:39:41.917Z,23.77
2022-09-05T10:41:14.684Z,23.68
2022-09-05T10:41:41.098Z,23.61
2022-09-05T10:42:59.697Z,23.46
2022-09-05T10:43:41.106Z,23.38
2022-09-05T10:44:41.067Z,23.34
2022-09-05T10:45:41.075Z,23.27
2022-09-05T10:46:56.489Z,23.34
2022-09-05T10:47:41.043Z,23.38
2022-09-05T10:48:41.045Z,23.35
2022-09-05T10:49:41.007Z,23.32
2022-09-05T10:50:41.027Z,23.29
2022-09-05T10:51:41.039Z,23.27
2022-09-05T10:52:41.011Z,23.27
2022-09-05T10:53:40.978Z,23.29
2022-09-05T10:54:54.713Z,23.27
2022-09-05T10:55:40.968Z,23.23
2022-09-05T10:56:40.947Z,23.19
2022-09-05T11:01:08.271Z,23.01
2022-09-05T11:11:34.606Z,22.83
2022-09-05T11:12:22.897Z,22.78
2022-09-05T11:13:23.290Z,22.74
2022-09-05T11:14:27.008Z,22.69
2022-09-05T11:15:22.792Z,22.65
2022-09-05T11:16:22.781Z,22.65
2022-09-05T11:17:22.756Z,22.67
2022-09-05T11:18:22.730Z,22.72
2022-09-05T11:19:22.808Z,22.83
2022-09-05T11:20:35.468Z,22.89
2022-09-05T11:21:22.744Z,22.87
2022-09-05T11:22:24.430Z,22.87
2022-09-05T11:23:28.232Z,22.86
2022-09-05T11:24:27.121Z,22.84
2022-09-05T11:25:24.501Z,22.80
2022-09-05T11:26:24.872Z,22.72
2022-09-05T11:27:24.239Z,22.64
2022-09-05T11:28:22.674Z,22.59
2022-09-05T11:29:22.654Z,22.59
2022-09-05T11:30:30.123Z,22.57
2022-09-05T11:31:22.687Z,22.54
2022-09-05T11:36:21.575Z,22.52
2022-09-05T11:40:27.419Z,22.50
2022-09-05T11:41:01.011Z,22.57
2022-09-05T11:41:14.189Z,22.54
2022-09-05T11:42:05.637Z,22.52
2022-09-05T11:43:04.849Z,22.47
2022-09-05T11:44:24.554Z,22.44
2022-09-05T11:45:04.804Z,22.41
2022-09-05T11:46:04.902Z,22.37
2022-09-05T11:47:28.224Z,22.32
2022-09-05T11:48:04.774Z,22.28
2022-09-05T11:49:04.743Z,22.20
2022-09-05T11:50:08.999Z,22.22
2022-09-05T11:51:04.892Z,22.19
2022-09-05T11:52:04.831Z,22.20
2022-09-05T11:53:04.732Z,22.17
2022-09-05T11:54:04.941Z,22.14
2022-09-05T11:55:04.728Z,22.14
2022-09-05T11:56:04.938Z,22.17
2022-09-05T11:57:32.367Z,22.25
2022-09-05T11:58:29.632Z,22.29
2022-09-05T11:59:05.230Z,22.41
2022-09-05T12:00:27.118Z,22.53
2022-09-05T12:01:43.106Z,22.69
2022-09-05T12:02:16.831Z,22.83
2022-09-05T12:03:04.672Z,22.90
2022-09-05T12:04:13.028Z,22.94
2022-09-05T12:05:47.706Z,22.94
2022-09-05T12:06:04.660Z,22.99
2022-09-05T12:07:26.282Z,23.02
2022-09-05T12:08:05.228Z,23.02
2022-09-05T12:09:04.560Z,23.02
2022-09-05T12:10:04.588Z,23.01
2022-09-05T12:11:04.541Z,22.99
2022-09-05T12:12:04.700Z,23.02
2022-09-05T12:13:04.531Z,23.02
2022-09-05T12:14:13.647Z,23.04
2022-09-05T12:15:07.310Z,23.05
2022-09-05T12:16:08.502Z,23.12
2022-09-05T12:42:13.692Z,23.17
2022-09-05T12:42:30.809Z,23.71
2022-09-05T12:44:38.392Z,23.76
2022-09-05T12:44:50.161Z,23.76
2022-09-05T12:45:02.908Z,23.75
2022-09-05T13:03:27.032Z,23.65
2022-09-05T13:04:21.731Z,23.67
2022-09-05T13:05:19.645Z,23.68
2022-09-05T13:06:25.632Z,23.68
2022-09-05T13:07:19.420Z,23.71
2022-09-05T13:08:19.391Z,23.71
2022-09-05T13:09:19.390Z,23.79
2022-09-05T13:14:46.158Z,23.82
2022-09-05T13:16:35.784Z,23.87
2022-09-05T13:17:33.561Z,23.87
2022-09-05T13:18:33.548Z,23.86
2022-09-05T13:19:33.578Z,23.83
2022-09-05T13:20:41.691Z,23.80
2022-09-05T13:21:33.808Z,23.77
2022-09-05T13:22:33.521Z,23.70
2022-09-05T13:27:36.195Z,23.62
2022-09-05T13:27:44.651Z,23.39
2022-09-05T13:28:44.609Z,23.34
2022-09-05T13:30:09.853Z,23.29
2022-09-05T13:37:59.037Z,23.24
2022-09-05T13:38:47.625Z,23.19
2022-09-05T13:38:54.981Z,23.26
2022-09-05T13:39:41.088Z,23.34
2022-09-05T13:40:41.065Z,23.53
2022-09-05T13:41:40.974Z,23.80
2022-09-05T13:42:40.951Z,24.04
2022-09-05T13:43:40.922Z,24.17
2022-09-05T13:44:40.905Z,24.32
2022-09-05T13:45:40.917Z,24.34
2022-09-05T13:46:40.986Z,24.34
2022-09-05T13:47:40.891Z,24.29
2022-09-05T13:49:40.860Z,24.16
2022-09-05T13:50:40.846Z,24.07
2022-09-05T13:51:40.856Z,24.05
2022-09-05T13:52:40.848Z,24.14
2022-09-05T13:53:40.810Z,24.22
2022-09-05T13:54:40.801Z,24.27
2022-09-05T13:55:40.788Z,24.34
2022-09-05T13:56:40.773Z,24.45
2022-09-05T13:57:40.767Z,24.57
2022-09-05T13:58:40.776Z,24.68
2022-09-05T13:59:40.749Z,24.71
2022-09-05T14:00:40.721Z,24.71
2022-09-05T14:01:43.604Z,24.69
2022-09-05T14:03:41.187Z,24.59
2022-09-05T14:05:40.764Z,24.45
2022-09-05T14:06:47.168Z,24.39
2022-09-05T14:07:44.374Z,24.35
2022-09-05T14:08:40.658Z,24.34
2022-09-05T14:09:40.973Z,24.32
2022-09-05T14:10:40.642Z,24.29
2022-09-05T14:11:44.966Z,24.27
2022-09-05T14:12:40.627Z,24.26
2022-09-05T14:13:40.622Z,24.22
2022-09-05T14:15:40.595Z,24.19
2022-09-05T14:16:49.866Z,24.16
2022-09-05T14:17:55.981Z,24.14
2022-09-05T14:18:40.640Z,24.08
2022-09-05T14:19:43.191Z,24.04
2022-09-05T14:20:42.971Z,24.02
2022-09-05T14:21:40.532Z,24.00
2022-09-05T14:22:40.504Z,23.97
2022-09-05T14:23:40.515Z,23.95
2022-09-05T14:24:40.479Z,23.90
2022-09-05T14:25:40.494Z,23.87
2022-09-05T14:26:40.461Z,23.85
2022-09-05T14:27:40.462Z,23.83
2022-09-05T14:28:40.562Z,23.82
2022-09-05T14:29:40.450Z,23.80
2022-09-05T14:32:20.927Z,23.82
2022-09-05T14:38:05.690Z,23.82
2022-09-05T14:38:16.063Z,23.64
2022-09-05T14:38:52.476Z,23.61
2022-09-05T14:39:52.415Z,23.55
2022-09-05T14:40:52.410Z,23.50
2022-09-05T14:42:03.556Z,23.45
2022-09-05T14:42:53.378Z,23.42
2022-09-05T14:43:56.636Z,23.39
2022-09-05T14:44:52.403Z,23.34
2022-09-05T14:45:52.528Z,23.29
2022-09-05T14:46:53.237Z,23.23
2022-09-05T14:47:52.271Z,23.20
2022-09-05T14:48:53.323Z,23.17
2022-09-05T14:49:53.655Z,23.17
2022-09-05T14:50:52.250Z,23.15
2022-09-05T14:51:52.250Z,23.14
2022-09-05T14:54:01.551Z,23.15
2022-09-05T14:55:52.299Z,23.20
2022-09-05T15:00:55.096Z,23.23
2022-09-05T15:03:06.024Z,23.35
2022-09-05T15:03:12.315Z,23.42
2022-09-05T15:05:12.233Z,23.38
2022-09-05T15:06:11.343Z,23.35
2022-09-05T15:07:11.478Z,23.34
2022-09-05T15:09:15.106Z,23.34
2022-09-05T15:12:39.648Z,23.32
2022-09-05T15:12:57.755Z,23.40
2022-09-05T15:13:33.428Z,23.39
2022-09-05T15:14:33.410Z,23.39
2022-09-05T15:15:33.399Z,23.40
2022-09-05T15:16:33.424Z,23.45
2022-09-05T15:17:33.400Z,23.49
2022-09-05T15:18:33.362Z,23.50
2022-09-05T15:19:33.368Z,23.55
2022-09-05T15:20:33.352Z,23.62
2022-09-05T15:21:35.359Z,23.64
2022-09-05T15:22:33.350Z,23.77
2022-09-05T15:23:33.358Z,23.86
2022-09-05T15:24:33.347Z,23.92
2022-09-05T15:25:33.323Z,23.95
2022-09-05T15:26:33.298Z,23.97
2022-09-05T15:27:33.291Z,23.97
2022-09-05T15:28:33.288Z,23.98
2022-09-05T15:29:33.255Z,24.00
2022-09-05T15:30:35.993Z,23.98
2022-09-05T15:31:33.251Z,24.02
2022-09-05T15:32:33.255Z,24.04
2022-09-05T15:33:33.212Z,24.04